Terminal Aerodrome Forecast
Issued by NWS

Home | Current Version | Previous Version | Text Only | Print | Product List | Glossary On
Versions: 1 2 3 4 5 6 7 8 9 10 11 12 13 14 15 16 17 18 19 20 21 22 23 24 25 26 27 28
000
FTUS43 KLOT 280521
TAFGYY
TAF
KGYY 280521Z 2806/2906 VRB03KT P6SM SCT040 BKN100
     FM281300 16005KT P6SM BKN080
     FM282200 11005KT P6SM -SHRA OVC035
     FM290200 05008KT 6SM BR SCT008 OVC012=

USA.gov is the U.S. government's official web portal to all federal, state and local government web resources and services.